Timeline UpdatesTrip UpdatesNews PostsPvt PostsTravel TipsAdmin PostsConv PostsFollowed PostsChat RequestsBlog PostsPNR Posts

Disclaimer
Search
 
 
Tue Sep 23, 2014 01:46:39 ISTHomeTrainsΣChainsAtlasPNRForumGalleryNewsFAQTripsMembersLoginFeedback
No Recent News for this Train
Other Trains in the News **new
Latest...
Short Origination from Kharagpur from 3/8/14/-9/8/14 #1158953-1
Tue Jul 22, 2014 (09:50PM)
⇐ Return Journey: Train# 58002

58001/Howrah-Puri Passenger (UnReserved)

Time-Table HAS CHANGED.
Sep 03 (1:51PM)
Change Departure Station:
Change Arrival Station:
Post a Train Travel TipPost a Train Travel Tip **new
Post a Comment/Question/Picture/VideoPost a Comment/Question/Picture/Video
Pantry/Catering
✕ NO Pantry Car
✓ Catering Avbl
RSA - Rake Sharing
58003-58004-58001-58002; Entry# 405717
Rake/Coach Composition
Only unreserved accommodation
Loco
SRC WAP-4
News    PNR    Forum    Time-Table    Availability    Fare Chart    Map    Arr/Dep History    Trips    Gallery    ΣChains    X/O    Timeline    
Travel Time: 9h 58m    57 halts    Distance: 351 km    Avg Speed: 35 km/hr
Type: Passenger
Zone: SER/South Eastern
Departs @ 23:50 (Avg 7m late)
Platform# 17
SMTWTFS
Kolkata Howrah Junction/HWH 
Arrives @ 09:48 +1 night (Avg 37m late)
Platform# ???
SMTWTFS
Jenapur/JEN 

57 halts. 73 intermediate Stations between Kolkata Howrah Junction and Jenapur

Show ALL intermediate Stations  Show Old Time-Table

#CodeStation NameX/OArrivesAvgDepartsAvgHaltPFDay#KmSpeedElevZoneAddress
1HWHKolkata Howrah Junction (23)»  -23:50+71710.02210mERHowrah 711101, West Bengal
2RMJRamrajatala (4)  00:06-00:07-1m--25.9177mSERHowrah, West Bengal
3SRCKolkata Santragachi Junction (6)  00:12+1100:13+111m227.3407mSERDist: Howrah - 711104, West Bengal
4ADLAndul (5)  00:20+2700:21+271m--212.06910mSERPin: 711302, West Bengal
5NALRNalpur (4)  00:29 00:28+3200:30+331 2m--220.1455mSERHowrah, West Bengal
6BVABauria Junction (5)  00:36 00:35+2700:37+271 2m--223.8387mSERHowrah, West Bengal
7CGAChengel (5)X  00:42+1900:43+191m--226.9318mSERNational Highway 6, West Bengal
8FLRPhuleswar (5)  00:48+4200:49+431m--229.53010mSERHowrah, West Bengal
9ULBUluberia (6)  00:54+2700:55+261m2232.04010mSERdist - howrah, West Bengal
10BSBPBir Shibpur (4)  01:01+3201:02+321m--236.0525mSERDist: Howrah, West Bengal
11KGYKulgachia (3)  01:06-01:07-1m--239.5557mSERHowrah, West Bengal
12BZNBagnan (4)  01:13+2701:14+271m--244.9498mSERBagnan, West Bengal
13DTEDeulti (5)  01:21+2101:22+211m--250.7209mSERDeulty, West Bengal
14KIGKolaghat (3)  01:29-01:30-1m--253.04511mSEREast Medinipore, West Bengal
15MCAMecheda (6)  01:35 01:34+1901:36+191 2m--256.04510mSERdist - purba Medinipur, West Bengal
16BOPBhogpur (4)  01:43+1901:44+191m--261.3617mSERMedinipur, West Bengal
17PKUPanskura Junction (6)X  01:51+1901:52 01:53+191 2m--268.4449mSERPanskura, West Bengal
18KHAIKhirai (3)X  01:59 02:00-02:00 02:01-1m--273.65311mSERPaschim Medinipur, West Bengal
19HAURHaur (4)X  02:05 02:06+2502:06 02:07+251m--278.05312mSERMedinipur, West Bengal
20RDURadhamohanpur (2)X  02:12-02:13-1m--282.46217mSERDist: West Medinipur, West Bengal
21BCKBalichak (4)  02:19+1302:20+131m--288.65421mSERKharagpur, West Bengal
22SMCKShyam Chak (4)  02:27 02:26+1802:28 02:27+181m--294.05920mSERDist: West Medinipur, West Bengal
23MPDMadpur (4)O  02:34 02:33+2602:35 02:34+271m--299.95827mSERKharagpur, West Bengal
24JPRJakpur (4)X  02:41 02:40+1902:42 02:41+221m--2105.82228mSERJakpur, West Bengal
25KGPKharagpur Junction (10)  03:00+703:25+1225m--2112.87342mSERKharagpur, West Bengal
26BLDABelda (4)X  03:54+3803:55+401m--2148.34424mSERDistrict Paschim Medinipur, West Bengal
27NSINekurseni (3)  04:06+4504:07+471m--2156.46424mSERNikursini, West Bengal
28DNTDantan  04:15+4204:16+431m--2164.95319mSERNational Highway 60, West Bengal
29AGVAngua (3)  04:22 04:21-04:23-1 2m--2169.35117mSERWest Medinipore, West Bengal
30LXDLakshannath Road (4)X  04:30+4404:31+441m--2175.34617mSERDist. Balasore, Odisha
31JERJaleswar (4)  04:39+3304:40+341m--2181.45113mSERJaleswar, Odisha
32RGTRajghat Halt (2)  04:50 04:49-04:51 04:50-1m--2189.14317mSERRajghat, Odisha
33ARDAmarda Road (4)X  05:00 04:59+4205:01 05:00+421m--2195.54611mSERAmarda Road, Odisha
34BTSBasta (3)X  05:08 05:07+4305:09 05:08+431m--2200.94816mSERBasta, Odisha
35NMBRN Mayurbhanj Road (3)X  05:15 05:14+005:16 05:15+01m--2205.74611mSERBaleswar, Odisha
36ROPRupsa Junction (5)  05:23 05:22+3305:24 05:23+361m--2211.05213mSERRupsa, Odisha
37HIPHaldipada (4)  05:31 05:30+3305:32 05:31+331m--2217.1519mSERHaldipada, Odisha
38TKPLTikirapal Halt  05:40 05:39-05:41 05:40-1m--2223.9338mSERBaleswar, Odisha
39BLSBalasore (4)X  05:50 05:49+2305:55 05:54+245m12228.97119mSERBalasore, Odisha
40NGRDNilgiri RoadX  06:04 06:03+4406:05 06:04+441m--2239.54814mSERBaleswar, Odisha
41KHFKhantapara  06:11 06:10+4506:12 06:11+451m--2244.35015mSERKhantaparha, Odisha
42PNPNPanpana  06:18 06:17-06:19 06:18-1m--2249.34415mSERKhantaparha, Odisha
43BNBRBahanaga BazarX  06:25 06:24+3406:26 06:25+331m--2253.75819mSERBalasore Distt., Odisha
44SOROSoro  06:35 06:34+3006:36 06:35+301m--2262.36514mSERSoro, Odisha
45SZZSabira  06:44 06:43-06:45 06:44-1m--2271.05214mSERNational Highway 5, Odisha
46MKOMarkonaX  06:52 06:51+2806:53 06:52+281m--2277.15518mSERMarkuna, Odisha
47RNTLRanitalX  07:00 06:59+2607:01 07:00+261m--2283.51922mSERBhadrak, Odisha
48BHCBhadrak (4)  07:25+3207:30+365m--2291.34323mECoRBhadrak, Odisha
49BUDRBaudpur  07:39+5407:40+561m--2297.85221mECoRBhadrak, Odisha
50KPLDKapali Road  07:45-07:46-1m--2302.15720mECoRKantia, Odisha
51KEDKenduapadaXO  07:50 07:51+5707:51 07:52+1:001m--2306.88323mECoRBhadrak, Odisha
52MZZManjuri Road  07:57+1:0307:58+1:051m--2313.74828mECoRBhadrak, Odisha
53DLPTDulakhapatnaX  08:03-08:04-1m--2317.74727mECoRBandalo, Odisha
54BTVBaitarani RoadX  08:11+1:0208:12+1:091m--2323.15927mECoRBaitarani, Odisha
55KRIHKorai HaltXO  08:19+1:1008:20+1:101m--2330.0530mECoRJajapur, Odisha
56JJKRJajpur Keonjhar Road (4)XO  09:29 09:25+1609:30+251 5m--2335.09336mECoRJajpur, Odisha
57JKPRJakhapura  09:35+3209:36+381m--2342.76819mECoRJajpur, Odisha
58BRMIBrahamani Ph new halt!!O  09:41-09:42-1m--2348.42222mECoRNational Highway 200, Odisha
59JENJenapur•  09:48+3709:49+421m--2350.65023mECoRNational Highway 200, Odisha
60NGMPNew Garh MadhopurX  09:56+4309:57+431m--2356.56628mECoRGarh Madhopur, Odisha
61HDSHaridaspur  10:06+4310:07+441m--2366.36130mECoRDhanmandal, Odisha
62DNMDhanmandal (3)  10:12+4810:13+511m--2371.47638mECoRDhanmanda, Odisha
63BRTGBarithengarhXO  10:18+5210:19+521m--2377.8625mECoRCuttack, Odisha
64BYYByree  11:05+1211:06+171m--2382.24833mECoRBairi, Odisha
65SJDRSri Jhadeshwar Road  11:11-11:12-1m--2386.25830mECoRNational Highway 5, Odisha
66KISKapilas Road Junction  11:18+1811:19+221m--2392.03824mECoRTangi, Odisha
67SQQSalagaon  11:26+3011:27+311m--2396.41729mECoRCuttack, Odisha
68CBTCharbatia  11:44+2111:45+261m--2401.37835mECoRCuttack, Odisha
69BDPGBada Padagaon  11:48-11:49-1m--2405.24831mECoRCuttack, Odisha
70GJTAGurudijhatia  11:59 11:55+2512:00+301 5m--2410.06233mECoRGurudijhat, Odisha
71MZYMachapur  12:06+3312:07+341m--2416.22248mECoRKapilash Rd, Odisha
72RQPRadhakishorepur  12:13+3512:14+361m--2418.47251mECoRNational Highway 42, Odisha
73GHNHGhantakhal Nidhipur  12:19+4312:20+1:101m--2424.45239mECoRCuttack, Odisha
74SPSRSarpeswar Ph new halt!!  12:25-12:26-1m--2428.72246mECoRSarpeswar, Odisha
75NQRNaraj MarthapurX  12:35+1:0912:36+1:201m--2432.05329mECoRCuttack, Odisha
76BRAGBarangX  12:46+1:2112:47+1:251m--2440.94127mECoRDist - Cuttack, Odisha
77MCSMancheswar  13:00+1:2813:01+1:311m--2449.82927mECoRMancheswar, Odisha
78BBSBhubaneswar (4)X  13:15+3013:20+305m42456.65440mECoRBhubaneshwar, Odisha
79LGTRLingaraj Temple Road  13:25-13:26-1m--2461.110639mECoRBhubaneswar, Odisha
80RTNRetangXO  13:30+1:3513:31+1:351m--2468.1619mECoRKhurdha, Odisha
81KURKhurda Road Junction (7)X  15:15 14:50+2415:25 15:00+2610m--2475.52325mECoRKhordha, Odisha
82HPGMHaripur Gram  15:32 15:07-15:33 15:08-1m--2478.24622mECoRKhordha, Odisha
83MWQMotari Halt  15:40 15:15+2215:41 15:16+291m--2483.54212mECoRMotari, Odisha
84KASRKanas Road  15:46 15:21-15:47 15:22-1m--2487.0449mECoRKhordha, Odisha
85DEGDelang  15:57 15:27+1915:58 15:28+331m--2490.7449mECoRKhordha, Odisha
86JERD new halt!!  15:33-15:34-1m--2494.46 ???
87BRSTBir PurushottampurX  16:09 15:40+2516:10 15:41+261m--2495.05612mECoRSatasankha, Odisha
88SILSakhi Gopal (3)O  16:15 15:47+3016:16 15:48+461m--2500.66010mECoRPuri, Odisha
89JKDPJankidaipurO  16:22 15:54-16:23 15:55-1m--2506.63713mECoRChandanpur, Odisha
90MLTMalatipatpur (1)  16:28 16:00+4516:29 16:01+461m12509.7415mECoRPuri, Odisha
91PURIPuri (5)  19:00 17:55+47---2517.0-12mECoRPuri, Odisha
Scroll to Top
Scroll to Bottom